Ora Direzione Vento Velocita' Vento Media Vento Raffica Max. Temperatura Wind Chill Pioggia Pressione
20:28:47.0315 °(NW)1.4 Kts0.8 Kts11.5 Kts29.9 °C29.9 °C0.0 mm1007.6 Hpa
20:07:36.00 °(N)0.0 Kts0.2 Kts11.5 Kts29.9 °C29.9 °C0.0 mm1007.8 Hpa
19:48:31.00 °(N)0.0 Kts0.2 Kts11.5 Kts29.9 °C29.9 °C0.0 mm1007.9 Hpa
19:27:24.00 °(N)0.0 Kts0.2 Kts11.5 Kts29.9 °C29.9 °C0.0 mm1007.8 Hpa
19:08:21.00 °(N)0.0 Kts0.2 Kts11.5 Kts29.9 °C29.9 °C0.0 mm1008.0 Hpa
18:47:14.00 °(N)0.0 Kts0.2 Kts11.5 Kts29.9 °C29.9 °C0.0 mm1007.9 Hpa
18:28:14.00 °(N)0.0 Kts0.2 Kts11.5 Kts29.9 °C29.9 °C0.0 mm1007.9 Hpa
18:07:06.00 °(N)0.0 Kts0.2 Kts11.5 Kts29.8 °C29.8 °C0.0 mm1008.0 Hpa
17:47:57.00 °(N)1.8 Kts1.6 Kts11.5 Kts29.9 °C29.9 °C0.0 mm1007.8 Hpa
17:26:45.00 °(N)3.9 Kts4.1 Kts11.5 Kts29.8 °C29.8 °C0.0 mm1007.8 Hpa
17:07:43.0338 °(NNW)4.5 Kts4.7 Kts11.5 Kts29.8 °C29.8 °C0.0 mm1008.0 Hpa
16:48:42.00 °(N)5.4 Kts4.7 Kts11.5 Kts29.8 °C29.8 °C0.0 mm1008.2 Hpa
16:27:36.0338 °(NNW)5.6 Kts5.4 Kts11.5 Kts29.6 °C29.6 °C0.0 mm1008.3 Hpa
16:08:34.023 °(NNE)5.4 Kts5.4 Kts11.5 Kts29.6 °C29.6 °C0.0 mm1008.5 Hpa
15:47:15.00 °(N)5.8 Kts6.0 Kts11.5 Kts29.6 °C29.6 °C0.0 mm1008.7 Hpa
15:28:11.00 °(N)6.0 Kts7.2 Kts11.5 Kts29.6 °C29.6 °C0.0 mm1008.7 Hpa
15:07:00.00 °(N)7.6 Kts6.8 Kts11.5 Kts29.6 °C29.6 °C0.0 mm1008.7 Hpa
14:47:56.00 °(N)6.8 Kts7.2 Kts11.5 Kts29.5 °C29.5 °C0.0 mm1008.8 Hpa
14:26:56.00 °(N)7.6 Kts7.4 Kts11.5 Kts29.5 °C29.5 °C0.0 mm1009.0 Hpa
14:07:52.00 °(N)7.6 Kts7.0 Kts11.5 Kts29.4 °C29.4 °C0.0 mm1009.1 Hpa